createdAt,value
2018-08-20T00:01:33.052Z,4.50
2018-08-20T00:04:04.819Z,4.97
2018-08-20T00:06:45.730Z,4.57
2018-08-20T00:09:14.492Z,3.93
2018-08-20T00:11:43.315Z,4.60
2018-08-20T00:14:12.210Z,5.20
2018-08-20T00:16:41.020Z,4.23
2018-08-20T00:19:13.497Z,4.77
2018-08-20T00:21:43.540Z,4.50
2018-08-20T00:24:12.371Z,4.13
2018-08-20T00:26:41.132Z,5.10
2018-08-20T00:29:09.899Z,4.93
2018-08-20T00:31:38.666Z,5.53
2018-08-20T00:34:07.439Z,4.93
2018-08-20T00:36:36.452Z,4.30
2018-08-20T00:39:07.516Z,5.17
2018-08-20T00:41:36.535Z,3.87
2018-08-20T00:44:09.675Z,4.67
2018-08-20T00:46:38.449Z,5.43
2018-08-20T00:49:07.217Z,4.67
2018-08-20T00:51:36.016Z,5.17
2018-08-20T00:54:04.837Z,5.80
2018-08-20T00:56:33.624Z,5.20
2018-08-20T00:59:03.232Z,5.97
2018-08-20T01:01:32.301Z,4.70
2018-08-20T01:04:01.916Z,5.23
2018-08-20T01:06:30.900Z,4.80
2018-08-20T01:08:59.680Z,4.80
2018-08-20T01:11:28.424Z,5.20
2018-08-20T01:13:57.165Z,4.97
2018-08-20T01:16:26.221Z,5.20
2018-08-20T01:18:54.996Z,5.40
2018-08-20T01:21:23.740Z,6.00
2018-08-20T01:23:52.480Z,5.50
2018-08-20T01:26:21.251Z,5.30
2018-08-20T01:28:50.012Z,4.70
2018-08-20T01:31:18.828Z,4.43
2018-08-20T01:33:47.593Z,4.63
2018-08-20T01:36:16.995Z,4.60
2018-08-20T01:38:45.732Z,5.40
2018-08-20T01:41:14.521Z,4.50
2018-08-20T01:43:43.308Z,5.47
2018-08-20T01:46:12.078Z,4.97
2018-08-20T01:48:40.824Z,5.47
2018-08-20T01:51:09.583Z,4.57
2018-08-20T01:53:38.364Z,5.07
2018-08-20T01:56:07.101Z,5.03
2018-08-20T01:58:35.884Z,5.00
2018-08-20T02:01:04.680Z,4.80
2018-08-20T02:03:33.492Z,4.57
2018-08-20T02:06:02.292Z,4.50
2018-08-20T02:08:31.097Z,4.67
2018-08-20T02:10:59.872Z,5.53
2018-08-20T02:13:28.628Z,5.30
2018-08-20T02:15:57.429Z,4.93
2018-08-20T02:18:26.205Z,5.97
2018-08-20T02:20:55.028Z,5.23
2018-08-20T02:23:23.922Z,5.43
2018-08-20T02:25:52.680Z,5.63
2018-08-20T02:28:21.680Z,5.37
2018-08-20T02:30:50.420Z,5.20
2018-08-20T02:33:19.282Z,5.43
2018-08-20T02:35:48.404Z,5.83
2018-08-20T02:38:17.222Z,5.33
2018-08-20T02:40:46.040Z,5.40
2018-08-20T02:43:14.772Z,5.77
2018-08-20T02:45:43.572Z,5.90
2018-08-20T02:48:12.346Z,5.70
2018-08-20T02:50:41.217Z,5.73
2018-08-20T02:53:09.976Z,5.73
2018-08-20T02:55:40.016Z,5.30
2018-08-20T02:58:08.836Z,6.33
2018-08-20T03:00:37.584Z,5.40
2018-08-20T03:03:06.426Z,6.13
2018-08-20T03:05:35.260Z,5.40
2018-08-20T03:08:04.130Z,5.67
2018-08-20T03:10:32.894Z,6.03
2018-08-20T03:13:01.660Z,5.77
2018-08-20T03:15:30.436Z,5.70
2018-08-20T03:17:59.215Z,5.70
2018-08-20T03:20:28.027Z,5.70
2018-08-20T03:22:56.815Z,6.27
2018-08-20T03:25:25.677Z,6.50
2018-08-20T03:27:54.464Z,7.07
2018-08-20T03:30:23.277Z,5.90
2018-08-20T03:32:52.016Z,5.87
2018-08-20T03:35:20.824Z,5.87
2018-08-20T03:37:49.584Z,6.47
2018-08-20T03:40:18.353Z,6.23
2018-08-20T03:42:47.121Z,6.57
2018-08-20T03:45:15.904Z,6.70
2018-08-20T03:47:44.876Z,7.17
2018-08-20T03:50:15.636Z,7.70
2018-08-20T03:52:44.434Z,7.73
2018-08-20T03:55:13.224Z,6.37
2018-08-20T03:57:41.960Z,6.80
2018-08-20T04:00:11.839Z,6.70
2018-08-20T04:02:40.660Z,7.30
2018-08-20T04:05:09.456Z,6.03
2018-08-20T04:07:38.179Z,6.80
2018-08-20T04:10:06.946Z,6.43
2018-08-20T04:12:35.696Z,7.60
2018-08-20T04:15:04.516Z,6.63
2018-08-20T04:17:33.251Z,6.57
2018-08-20T04:20:01.999Z,6.57
2018-08-20T04:22:30.743Z,6.63
2018-08-20T04:24:59.520Z,6.47
2018-08-20T04:27:28.259Z,7.20
2018-08-20T04:29:57.021Z,5.83
2018-08-20T04:32:25.794Z,6.80
2018-08-20T04:34:54.552Z,6.70
2018-08-20T04:37:23.553Z,7.57
2018-08-20T04:39:52.312Z,6.97
2018-08-20T04:42:21.113Z,7.23
2018-08-20T04:44:49.900Z,8.33
2018-08-20T04:47:20.053Z,6.43
2018-08-20T04:49:48.871Z,7.43
2018-08-20T04:52:18.284Z,6.80
2018-08-20T04:54:47.036Z,6.43
2018-08-20T04:57:15.877Z,6.60
2018-08-20T04:59:44.883Z,7.37
2018-08-20T05:02:13.710Z,6.50
2018-08-20T05:04:42.734Z,7.13
2018-08-20T05:07:11.600Z,6.60
2018-08-20T05:09:40.358Z,6.07
2018-08-20T05:12:11.007Z,6.10
2018-08-20T05:14:41.692Z,6.10
2018-08-20T05:17:11.646Z,6.57
2018-08-20T05:19:42.417Z,7.10
2018-08-20T05:22:11.376Z,6.67
2018-08-20T05:24:40.180Z,7.03
2018-08-20T05:27:09.572Z,7.50
2018-08-20T05:29:38.471Z,7.07
2018-08-20T05:32:07.308Z,6.53
2018-08-20T05:34:36.209Z,7.20
2018-08-20T05:37:05.291Z,6.30
2018-08-20T05:39:34.044Z,6.47
2018-08-20T05:42:02.880Z,6.20
2018-08-20T05:44:31.665Z,5.77
2018-08-20T05:47:00.446Z,6.73
2018-08-20T05:49:29.278Z,6.00
2018-08-20T05:51:58.132Z,6.30
2018-08-20T05:54:26.872Z,6.10
2018-08-20T05:56:55.648Z,5.37
2018-08-20T05:59:24.480Z,5.33
2018-08-20T06:01:53.260Z,5.17
2018-08-20T06:04:22.068Z,5.27
2018-08-20T06:06:50.844Z,5.17
2018-08-20T06:09:19.696Z,4.83
2018-08-20T06:11:48.529Z,5.87
2018-08-20T06:14:17.342Z,5.13
2018-08-20T06:16:46.228Z,4.80
2018-08-20T06:19:15.044Z,5.63
2018-08-20T06:21:43.812Z,4.60
2018-08-20T06:24:12.629Z,4.50
2018-08-20T06:26:41.414Z,5.00
2018-08-20T06:29:10.192Z,4.57
2018-08-20T06:31:38.958Z,4.70
2018-08-20T06:34:07.841Z,5.00
2018-08-20T06:36:36.668Z,4.77
2018-08-20T06:39:07.600Z,4.77
2018-08-20T06:41:36.416Z,5.40
2018-08-20T06:44:05.580Z,4.10
2018-08-20T06:46:34.392Z,4.80
2018-08-20T06:49:03.195Z,4.70
2018-08-20T06:51:31.944Z,3.87
2018-08-20T06:54:00.693Z,4.00
2018-08-20T06:56:29.453Z,4.73
2018-08-20T06:58:58.301Z,4.07
2018-08-20T07:01:27.092Z,4.33
2018-08-20T07:03:55.880Z,4.10
2018-08-20T07:06:24.711Z,3.83
2018-08-20T07:08:53.439Z,4.00
2018-08-20T07:11:22.205Z,3.93
2018-08-20T07:13:51.085Z,3.90
2018-08-20T07:16:19.908Z,4.17
2018-08-20T07:18:48.648Z,3.87
2018-08-20T07:21:17.457Z,3.90
2018-08-20T07:23:46.512Z,4.60
2018-08-20T07:26:15.339Z,3.70
2018-08-20T07:28:44.110Z,4.20
2018-08-20T07:31:12.918Z,3.53
2018-08-20T07:33:41.722Z,3.90
2018-08-20T07:36:10.560Z,3.83
2018-08-20T07:38:39.349Z,4.13
2018-08-20T07:41:08.292Z,4.20
2018-08-20T07:43:37.109Z,3.83
2018-08-20T07:46:05.936Z,3.53
2018-08-20T07:48:34.706Z,4.03
2018-08-20T07:51:04.332Z,4.03
2018-08-20T07:53:33.141Z,3.80
2018-08-20T07:56:01.954Z,3.30
2018-08-20T07:58:30.746Z,3.57
2018-08-20T08:00:59.537Z,3.90
2018-08-20T08:03:31.619Z,4.27
2018-08-20T08:06:02.770Z,3.87
2018-08-20T08:08:31.740Z,3.07
2018-08-20T08:11:00.600Z,4.20
2018-08-20T08:13:29.373Z,3.67
2018-08-20T08:15:58.148Z,3.83
2018-08-20T08:18:26.982Z,3.43
2018-08-20T08:20:55.971Z,3.77
2018-08-20T08:23:24.806Z,3.37
2018-08-20T08:25:53.600Z,3.70
2018-08-20T08:28:22.388Z,3.57
2018-08-20T08:30:51.141Z,4.20
2018-08-20T08:33:19.889Z,3.20
2018-08-20T08:35:48.704Z,4.23
2018-08-20T08:38:17.494Z,4.30
2018-08-20T08:40:46.313Z,3.90
2018-08-20T08:43:15.100Z,3.43
2018-08-20T08:45:43.869Z,4.40
2018-08-20T08:48:12.645Z,3.83
2018-08-20T08:50:41.388Z,3.50
2018-08-20T08:53:10.244Z,3.47
2018-08-20T08:55:39.013Z,3.70
2018-08-20T08:58:07.786Z,4.00
2018-08-20T09:00:36.680Z,4.20
2018-08-20T09:03:05.413Z,4.33
2018-08-20T09:05:34.228Z,4.27
2018-08-20T09:08:03.013Z,3.90
2018-08-20T09:10:31.774Z,4.73
2018-08-20T09:13:00.518Z,3.10
2018-08-20T09:15:29.306Z,3.77
2018-08-20T09:17:58.040Z,3.73
2018-08-20T09:20:26.828Z,3.60
2018-08-20T09:22:55.631Z,3.27
2018-08-20T09:25:24.404Z,3.43
2018-08-20T09:27:53.188Z,3.10
2018-08-20T09:30:23.503Z,3.17
2018-08-20T09:32:52.321Z,3.27
2018-08-20T09:35:21.136Z,2.97
2018-08-20T09:37:49.969Z,3.63
2018-08-20T09:40:18.720Z,3.60
2018-08-20T09:42:47.512Z,3.27
2018-08-20T09:45:16.321Z,3.20
2018-08-20T09:47:45.075Z,2.70
2018-08-20T09:50:15.645Z,2.40
2018-08-20T09:52:44.834Z,2.20
2018-08-20T09:55:13.711Z,2.10
2018-08-20T09:57:42.501Z,2.73
2018-08-20T10:00:17.210Z,2.57
2018-08-20T10:02:45.962Z,2.63
2018-08-20T10:05:14.713Z,1.70
2018-08-20T10:07:43.732Z,1.70
2018-08-20T10:10:13.114Z,2.00
2018-08-20T10:12:42.022Z,1.70
2018-08-20T10:15:10.904Z,2.13
2018-08-20T10:17:39.746Z,2.10
2018-08-20T10:20:10.647Z,2.47
2018-08-20T10:22:39.626Z,2.93
2018-08-20T10:25:08.644Z,2.20
2018-08-20T10:27:38.441Z,2.80
2018-08-20T10:30:08.768Z,2.03
2018-08-20T10:32:37.528Z,2.47
2018-08-20T10:35:06.622Z,2.77
2018-08-20T10:37:35.450Z,2.90
2018-08-20T10:40:04.277Z,2.70
2018-08-20T10:42:33.104Z,2.80
2018-08-20T10:45:07.172Z,2.30
2018-08-20T10:47:35.945Z,2.53
2018-08-20T10:50:04.773Z,2.37
2018-08-20T10:52:33.546Z,2.17
2018-08-20T10:55:02.288Z,2.47
2018-08-20T10:57:31.104Z,2.47
2018-08-20T10:59:59.917Z,3.40
2018-08-20T11:02:28.693Z,2.37
2018-08-20T11:04:57.447Z,2.50
2018-08-20T11:07:26.225Z,2.40
2018-08-20T11:09:55.090Z,2.53
2018-08-20T11:12:23.868Z,2.77
2018-08-20T11:14:52.629Z,3.03
2018-08-20T11:17:21.427Z,3.03
2018-08-20T11:19:50.153Z,2.20
2018-08-20T11:22:18.917Z,2.57
2018-08-20T11:24:47.678Z,2.73
2018-08-20T11:27:16.443Z,2.60
2018-08-20T11:29:45.186Z,3.17
2018-08-20T11:32:13.932Z,2.60
2018-08-20T11:34:42.713Z,2.93
2018-08-20T11:37:11.535Z,2.70
2018-08-20T11:39:40.567Z,2.73
2018-08-20T11:42:09.559Z,2.73
2018-08-20T11:44:38.322Z,2.63
2018-08-20T11:47:07.099Z,2.73
2018-08-20T11:49:35.869Z,3.40
2018-08-20T11:52:04.676Z,2.90
2018-08-20T11:54:33.453Z,2.17
2018-08-20T11:57:02.342Z,3.17
2018-08-20T11:59:31.137Z,2.87
2018-08-20T12:02:06.350Z,2.80
2018-08-20T12:04:35.130Z,2.33
2018-08-20T12:07:03.946Z,2.40
2018-08-20T12:09:32.713Z,2.73
2018-08-20T12:12:01.561Z,2.87
2018-08-20T12:14:30.420Z,2.17
2018-08-20T12:16:59.210Z,2.57
2018-08-20T12:19:27.960Z,2.47
2018-08-20T12:21:56.754Z,2.90
2018-08-20T12:24:25.526Z,2.70
2018-08-20T12:26:54.353Z,2.10
2018-08-20T12:29:23.182Z,2.20
2018-08-20T12:31:51.937Z,2.63
2018-08-20T12:34:20.746Z,2.77
2018-08-20T12:36:49.553Z,2.20
2018-08-20T12:39:18.316Z,2.97
2018-08-20T12:41:47.047Z,2.40
2018-08-20T12:44:15.832Z,2.83
2018-08-20T12:46:44.580Z,2.03
2018-08-20T12:49:13.333Z,1.77
2018-08-20T12:51:42.108Z,1.90
2018-08-20T12:54:10.973Z,1.80
2018-08-20T12:56:39.790Z,1.93
2018-08-20T12:59:08.612Z,1.57
2018-08-20T13:01:37.544Z,2.13
2018-08-20T13:04:06.330Z,1.63
2018-08-20T13:06:35.149Z,1.87
2018-08-20T13:09:05.078Z,2.00
2018-08-20T13:11:33.804Z,1.73
2018-08-20T13:14:02.589Z,1.80
2018-08-20T13:16:31.389Z,1.50
2018-08-20T13:19:00.200Z,1.50
2018-08-20T13:21:29.001Z,1.63
2018-08-20T13:23:57.747Z,1.30
2018-08-20T13:26:26.528Z,2.40
2018-08-20T13:28:55.277Z,1.60
2018-08-20T13:31:24.028Z,2.13
2018-08-20T13:33:53.075Z,2.30
2018-08-20T13:36:21.835Z,2.07
2018-08-20T13:38:50.747Z,1.77
2018-08-20T13:41:19.516Z,1.90
2018-08-20T13:43:48.285Z,1.80
2018-08-20T13:46:17.095Z,1.57
2018-08-20T13:48:45.885Z,1.50
2018-08-20T13:51:14.677Z,1.63
2018-08-20T13:53:43.444Z,1.50
2018-08-20T13:56:12.292Z,1.60
2018-08-20T13:58:41.036Z,1.40
2018-08-20T14:01:09.812Z,1.40
2018-08-20T14:03:38.576Z,1.50
2018-08-20T14:06:07.633Z,1.77
2018-08-20T14:08:36.389Z,1.77
2018-08-20T14:11:05.152Z,2.30
2018-08-20T14:13:33.948Z,2.17
2018-08-20T14:16:02.735Z,2.70
2018-08-20T14:18:31.469Z,2.70
2018-08-20T14:21:06.390Z,2.30
2018-08-20T14:23:35.485Z,2.80
2018-08-20T14:26:04.341Z,2.13
2018-08-20T14:28:33.124Z,2.53
2018-08-20T14:31:01.913Z,2.60
2018-08-20T14:33:30.739Z,2.87
2018-08-20T14:35:59.538Z,2.83
2018-08-20T14:38:28.321Z,2.83
2018-08-20T14:40:57.092Z,3.10
2018-08-20T14:43:25.902Z,3.43
2018-08-20T14:45:59.964Z,3.03
2018-08-20T14:48:28.806Z,3.03
2018-08-20T14:50:57.569Z,2.80
2018-08-20T14:53:26.529Z,3.10
2018-08-20T14:55:55.688Z,3.33
2018-08-20T14:58:24.581Z,3.70
2018-08-20T15:00:53.342Z,3.87
2018-08-20T15:03:22.169Z,3.27
2018-08-20T15:05:50.938Z,3.33
2018-08-20T15:08:19.711Z,2.70
2018-08-20T15:10:48.554Z,3.53
2018-08-20T15:13:17.308Z,4.03
2018-08-20T15:15:46.271Z,3.80
2018-08-20T15:18:14.888Z,4.30
2018-08-20T15:20:43.646Z,3.90
2018-08-20T15:23:12.509Z,3.83
2018-08-20T15:25:41.250Z,3.93
2018-08-20T15:28:10.036Z,4.50
2018-08-20T15:30:38.800Z,3.83
2018-08-20T15:33:07.670Z,3.67
2018-08-20T15:35:36.485Z,4.43
2018-08-20T15:38:05.261Z,4.13
2018-08-20T15:40:34.010Z,4.10
2018-08-20T15:43:02.748Z,3.67
2018-08-20T15:45:31.539Z,3.97
2018-08-20T15:48:00.321Z,4.30
2018-08-20T15:50:29.076Z,4.10
2018-08-20T15:52:57.886Z,4.10
2018-08-20T15:55:26.660Z,3.40
2018-08-20T15:57:55.400Z,4.30
2018-08-20T16:00:24.212Z,4.03
2018-08-20T16:02:52.940Z,4.17
2018-08-20T16:05:21.724Z,4.07
2018-08-20T16:07:50.575Z,5.17
2018-08-20T16:10:19.350Z,4.10
2018-08-20T16:12:48.109Z,4.50
2018-08-20T16:15:16.885Z,4.30
2018-08-20T16:17:45.642Z,4.03
2018-08-20T16:20:14.409Z,3.63
2018-08-20T16:22:43.518Z,4.43
2018-08-20T16:25:12.285Z,4.47
2018-08-20T16:27:41.040Z,3.93
2018-08-20T16:30:12.180Z,4.40
2018-08-20T16:32:43.809Z,4.43
2018-08-20T16:35:13.440Z,3.70
2018-08-20T16:37:43.376Z,4.10
2018-08-20T16:40:12.449Z,4.00
2018-08-20T16:42:41.206Z,3.83
2018-08-20T16:45:10.774Z,3.83
2018-08-20T16:47:39.945Z,4.23
2018-08-20T16:50:10.817Z,3.90
2018-08-20T16:52:39.851Z,3.53
2018-08-20T16:55:09.387Z,3.80
2018-08-20T16:57:38.516Z,4.53
2018-08-20T17:00:09.333Z,3.83
2018-08-20T17:02:40.557Z,4.50
2018-08-20T17:05:10.798Z,4.73
2018-08-20T17:07:39.955Z,4.77
2018-08-20T17:10:11.238Z,4.43
2018-08-20T17:12:40.587Z,4.23
2018-08-20T17:15:12.706Z,2.97
2018-08-20T17:17:41.691Z,3.20
2018-08-20T17:20:12.407Z,3.70
2018-08-20T17:22:42.552Z,2.80
2018-08-20T17:25:11.370Z,3.10
2018-08-20T17:27:40.440Z,3.70
2018-08-20T17:30:10.340Z,3.60
2018-08-20T17:32:45.338Z,3.60
2018-08-20T17:35:14.237Z,4.27
2018-08-20T17:37:43.434Z,3.70
2018-08-20T17:40:12.394Z,3.43
2018-08-20T17:42:41.416Z,3.47
2018-08-20T17:45:10.442Z,3.53
2018-08-20T17:47:40.265Z,3.50
2018-08-20T17:50:24.619Z,3.63
2018-08-20T17:52:53.531Z,3.33
2018-08-20T17:55:22.364Z,4.13
2018-08-20T17:57:51.143Z,3.80
2018-08-20T18:00:30.066Z,3.30
2018-08-20T18:02:59.048Z,3.00
2018-08-20T18:05:27.848Z,3.27
2018-08-20T18:07:57.008Z,3.87
2018-08-20T18:10:26.229Z,3.03
2018-08-20T18:12:55.219Z,2.90
2018-08-20T18:15:24.483Z,3.27
2018-08-20T18:17:53.288Z,3.33
2018-08-20T18:20:22.097Z,3.60
2018-08-20T18:22:51.163Z,3.40
2018-08-20T18:25:20.416Z,3.30
2018-08-20T18:27:49.627Z,3.50
2018-08-20T18:30:18.515Z,3.80
2018-08-20T18:32:47.727Z,3.80
2018-08-20T18:35:35.583Z,3.83
2018-08-20T18:38:04.574Z,3.67
2018-08-20T18:40:33.592Z,3.43
2018-08-20T18:43:02.712Z,3.70
2018-08-20T18:45:31.487Z,3.73
2018-08-20T18:48:00.645Z,3.77
2018-08-20T18:50:29.452Z,4.03
2018-08-20T18:52:58.269Z,3.60
2018-08-20T18:55:27.121Z,3.60
2018-08-20T18:57:55.937Z,3.77
2018-08-20T19:00:24.813Z,4.17
2018-08-20T19:02:56.028Z,3.90
2018-08-20T19:05:24.866Z,3.33
2018-08-20T19:07:53.688Z,3.30
2018-08-20T19:10:31.336Z,4.30
2018-08-20T19:13:00.314Z,3.23
2018-08-20T19:15:37.981Z,4.33
2018-08-20T19:18:08.474Z,4.50
2018-08-20T19:20:39.848Z,4.10
2018-08-20T19:23:08.852Z,4.40
2018-08-20T19:25:38.376Z,5.07
2018-08-20T19:28:13.529Z,4.80
2018-08-20T19:30:43.587Z,4.97
2018-08-20T19:33:18.059Z,4.67
2018-08-20T19:35:46.861Z,4.57
2018-08-20T19:38:16.005Z,5.30
2018-08-20T19:40:45.035Z,4.90
2018-08-20T19:43:13.968Z,4.70
2018-08-20T19:45:43.728Z,4.80
2018-08-20T19:48:13.490Z,6.10
2018-08-20T19:50:42.302Z,4.80
2018-08-20T19:53:28.568Z,4.30
2018-08-20T19:55:57.926Z,4.33
2018-08-20T19:58:35.153Z,6.03
2018-08-20T20:01:14.040Z,3.90
2018-08-20T20:03:45.296Z,5.40
2018-08-20T20:06:14.964Z,5.10
2018-08-20T20:08:43.776Z,5.33
2018-08-20T20:11:19.886Z,5.43
2018-08-20T20:13:52.691Z,4.53
2018-08-20T20:16:21.658Z,4.37
2018-08-20T20:18:51.545Z,4.87
2018-08-20T20:21:22.145Z,4.27
2018-08-20T20:23:51.833Z,4.37
2018-08-20T20:26:21.524Z,4.97
2018-08-20T20:28:50.419Z,4.90
2018-08-20T20:31:19.271Z,5.20
2018-08-20T20:33:48.145Z,5.20
2018-08-20T20:36:21.306Z,4.30
2018-08-20T20:38:53.233Z,3.57
2018-08-20T20:41:22.886Z,3.77
2018-08-20T20:43:51.901Z,4.60
2018-08-20T20:46:20.792Z,3.83
2018-08-20T20:48:49.624Z,2.77
2018-08-20T20:51:18.904Z,3.47
2018-08-20T20:53:48.069Z,3.37
2018-08-20T20:56:17.215Z,3.17
2018-08-20T20:58:46.057Z,3.10
2018-08-20T21:01:15.360Z,2.93
2018-08-20T21:03:44.253Z,3.13
2018-08-20T21:06:13.085Z,3.10
2018-08-20T21:08:48.244Z,2.70
2018-08-20T21:11:18.108Z,3.23
2018-08-20T21:13:47.101Z,2.83
2018-08-20T21:16:26.792Z,2.77
2018-08-20T21:18:58.925Z,2.97
2018-08-20T21:21:29.255Z,2.77
2018-08-20T21:23:58.194Z,3.43
2018-08-20T21:26:27.072Z,4.17
2018-08-20T21:28:56.399Z,2.90
2018-08-20T21:31:26.453Z,3.43
2018-08-20T21:33:57.852Z,3.63
2018-08-20T21:36:26.652Z,3.30
2018-08-20T21:38:55.437Z,3.17
2018-08-20T21:41:27.964Z,2.90
2018-08-20T21:43:57.470Z,3.47
2018-08-20T21:46:26.513Z,3.00
2018-08-20T21:48:55.541Z,3.23
2018-08-20T21:51:34.531Z,3.37
2018-08-20T21:54:03.400Z,3.50
2018-08-20T21:56:43.258Z,3.00
2018-08-20T21:59:12.198Z,2.47
2018-08-20T22:01:41.294Z,3.23
2018-08-20T22:04:15.652Z,3.50
2018-08-20T22:06:44.775Z,3.03
2018-08-20T22:09:13.796Z,3.33
2018-08-20T22:11:42.625Z,3.00
2018-08-20T22:14:12.467Z,3.63
2018-08-20T22:16:41.254Z,3.10
2018-08-20T22:19:10.144Z,3.73
2018-08-20T22:21:38.945Z,3.73
2018-08-20T22:24:09.123Z,3.40
2018-08-20T22:26:45.435Z,3.47
2018-08-20T22:29:14.559Z,3.50
2018-08-20T22:31:48.467Z,3.27
2018-08-20T22:34:17.279Z,3.70
2018-08-20T22:36:47.037Z,4.47
2018-08-20T22:39:15.784Z,3.80
2018-08-20T22:41:44.862Z,3.77
2018-08-20T22:44:13.616Z,3.30
2018-08-20T22:46:42.588Z,2.77
2018-08-20T22:49:11.328Z,3.43
2018-08-20T22:51:40.142Z,2.93
2018-08-20T22:54:08.956Z,3.00
2018-08-20T22:56:44.145Z,3.47
2018-08-20T22:59:13.251Z,3.13
2018-08-20T23:01:43.041Z,3.23
2018-08-20T23:04:11.800Z,3.37
2018-08-20T23:06:40.595Z,2.83
2018-08-20T23:09:26.408Z,2.90
2018-08-20T23:11:55.387Z,2.93
2018-08-20T23:14:24.324Z,3.70
2018-08-20T23:16:53.412Z,3.20
2018-08-20T23:19:22.229Z,3.07
2018-08-20T23:21:53.671Z,4.33
2018-08-20T23:24:22.425Z,3.60
2018-08-20T23:26:51.343Z,3.30
2018-08-20T23:29:20.170Z,3.43
2018-08-20T23:31:48.940Z,3.53
2018-08-20T23:34:17.705Z,4.20
2018-08-20T23:36:46.465Z,2.77
2018-08-20T23:39:17.622Z,3.17
2018-08-20T23:41:46.557Z,3.27
2018-08-20T23:44:16.277Z,3.30
2018-08-20T23:46:48.761Z,3.13
2018-08-20T23:49:17.648Z,3.07
2018-08-20T23:51:46.548Z,3.00
2018-08-20T23:54:15.354Z,3.77
2018-08-20T23:56:44.144Z,3.33
2018-08-20T23:59:13.217Z,3.47
